Date,TemperatureHighF,TemperatureAvgF,TemperatureLowF,DewpointHighF,DewpointAvgF,DewpointLowF,HumidityHigh,HumidityAvg,HumidityLow,PressureMaxIn,PressureMinIn,WindSpeedMaxMPH,WindSpeedAvgMPH,GustSpeedMaxMPH,PrecipitationSumIn
2013-3-1,59.5,46.1,33.6,33.0,29.4,25.0,89,55,28,30.26,30.13,17,3,23,0.00
2013-3-2,50.9,39.9,31.0,33.0,26.0,21.0,83,60,33,30.35,30.21,15,3,19,0.00
2013-3-3,66.8,47.6,28.3,42.0,32.0,25.0,90,60,30,30.28,30.01,5,1,8,0.00
2013-3-4,79.3,63.7,50.2,60.0,53.3,42.0,89,71,43,30.01,29.73,8,1,15,0.00
2013-3-5,66.1,58.8,39.2,60.0,39.6,25.0,88,53,24,30.32,29.78,16,4,29,0.00
2013-3-6,38.6,35.9,33.4,31.0,28.4,27.0,80,74,67,30.36,30.30,0,0,3,0.00
2013-3-7,66.6,51.3,35.3,41.0,35.3,30.0,89,60,28,30.32,30.18,5,0,7,0.00
2013-3-8,73.0,57.4,42.0,55.0,47.0,38.0,90,70,48,30.26,30.10,5,0,9,0.00
2013-3-9,73.6,63.8,57.1,62.0,56.9,49.0,90,79,63,30.10,29.82,6,1,11,0.02
2013-3-10,64.5,58.0,45.8,62.0,51.7,36.0,91,80,52,30.04,29.72,9,2,26,1.05
2013-3-11,58.9,47.6,38.0,36.0,32.3,27.0,83,58,32,30.11,29.98,9,2,16,0.00
2013-3-12,70.4,49.0,31.9,43.0,33.8,29.0,91,64,22,30.27,30.08,4,0,9,0.00
2013-3-13,70.5,52.6,38.2,42.0,36.1,28.0,89,61,22,30.45,30.28,8,0,9,0.00
2013-3-14,76.8,55.8,38.0,49.0,41.5,35.0,90,64,31,30.42,30.25,6,0,6,0.00
2013-3-15,81.0,64.6,45.5,54.0,48.3,43.0,90,60,31,30.26,30.03,7,1,11,0.00
2013-3-16,81.4,67.8,57.5,59.0,56.0,54.0,90,69,39,30.04,29.82,6,1,13,0.00
2013-3-17,81.8,69.2,59.5,65.0,60.6,56.0,90,76,48,29.88,29.69,5,0,15,0.00
2013-3-18,85.2,72.8,64.1,67.0,61.9,53.0,90,71,45,29.95,29.74,8,1,11,0.00
2013-3-19,76.7,64.6,52.5,54.0,47.0,40.0,79,55,37,30.06,29.94,6,1,13,0.00
2013-3-20,72.3,58.0,47.6,47.0,41.4,29.0,90,60,21,30.24,30.04,10,1,15,0.24
2013-3-21,72.9,57.3,45.8,54.0,44.3,37.0,87,64,35,30.06,29.72,5,0,11,0.00
2013-3-22,84.4,70.1,60.1,67.0,61.6,54.0,89,76,51,29.77,29.65,4,0,8,0.00
2013-3-23,66.6,59.1,54.1,59.0,54.8,51.0,90,86,75,29.81,29.62,6,1,8,0.00
2013-3-24,58.7,51.8,41.1,56.0,39.3,30.0,89,65,39,30.14,29.65,16,4,25,0.00
2013-3-25,58.4,44.3,31.9,33.0,25.2,19.0,84,53,22,30.37,30.14,12,2,20,0.00
2013-3-26,59.4,43.8,29.0,32.0,24.0,19.0,83,51,23,30.49,30.33,17,2,17,0.00
2013-3-27,69.9,50.5,31.5,43.0,33.5,29.0,90,59,26,30.41,30.19,5,0,9,0.00
2013-3-28,71.7,60.7,52.5,55.0,49.8,43.0,81,68,51,30.31,30.18,3,0,6,0.00
2013-3-29,78.2,64.0,55.4,60.0,56.4,52.0,90,78,49,30.25,30.13,4,0,8,0.00
2013-3-30,79.1,67.3,58.3,66.0,60.1,56.0,91,79,50,30.16,29.95,4,0,13,0.42
2013-3-31,73.9,64.4,58.2,66.0,60.8,56.0,91,88,74,30.02,29.88,8,0,20,0.74